Time;durP1;ratioP1;P1;durP2;ratioP2;P2;SDS_P1;SDS_P2;PMS_P1;PMS_P2;Temp;Humidity;BMP_temperature;BMP_pressure;BME280_temperature;BME280_humidity;BME280_pressure;Samples;Min_cycle;Max_cycle;Signal;HPM_P1;HPM_P2
2022/03/10 00:00:12;;;;;;;;;;;;;;;1.78;72.70;100350.78;4983382;28;19965;-82
2022/03/10 00:02:38;;;;;;;;;;;;;;;1.79;73.62;100345.56;4982983;28;19973;-83
2022/03/10 00:05:03;;;;;;;;;;;;;;;1.79;74.40;100350.78;4979785;28;19926;-83
2022/03/10 00:07:28;;;;;;;;;;;;;;;1.79;74.97;100342.06;4978752;28;19947;-82
2022/03/10 00:09:54;;;;;;;;;;;;;;;1.81;75.37;100340.31;4982125;28;19941;-82
2022/03/10 00:12:19;;;;;;;;;;;;;;;1.79;75.32;100344.69;4981123;28;19937;-83
2022/03/10 00:14:44;;;;;;;;;;;;;;;1.80;75.37;100341.19;4979162;28;20265;-81
2022/03/10 00:17:10;;;;;;;;;;;;;;;1.84;75.25;100352.53;4981154;28;20020;-83
2022/03/10 00:19:35;;;;;;;;;;;;;;;1.82;75.18;100352.53;4979700;28;19973;-81
2022/03/10 00:22:01;;;;;;;;;;;;;;;1.84;74.93;100353.41;4976775;28;19933;-83
2022/03/10 00:24:26;;;;;;;;;;;;;;;1.84;74.81;100348.19;4983460;28;19929;-81
2022/03/10 00:26:51;;;;;;;;;;;;;;;1.83;74.65;100348.16;4981033;28;19929;-84
2022/03/10 00:29:16;;;;;;;;;;;;;;;1.83;74.48;100351.66;4982737;28;19917;-84
2022/03/10 00:31:42;;;;;;;;;;;;;;;1.83;74.31;100356.88;4984145;28;19922;-79
2022/03/10 00:34:07;;;;;;;;;;;;;;;1.84;74.25;100352.53;4982114;28;19956;-83
2022/03/10 00:36:33;;;;;;;;;;;;;;;1.86;74.10;100367.34;4982663;28;19930;-80
2022/03/10 00:38:58;;;;;;;;;;;;;;;1.85;74.00;100359.50;4982356;28;19928;-80
2022/03/10 00:41:23;;;;;;;;;;;;;;;1.85;73.74;100356.88;4983180;28;19922;-80
2022/03/10 00:43:48;;;;;;;;;;;;;;;1.86;73.63;100364.72;4982397;28;19925;-82
2022/03/10 00:46:14;;;;;;;;;;;;;;;1.84;73.43;100358.63;4982366;28;20016;-78
2022/03/10 00:48:39;;;;;;;;;;;;;;;1.86;73.30;100372.56;4983202;28;19925;-82
2022/03/10 00:51:05;;;;;;;;;;;;;;;1.99;74.18;100363.00;4980423;28;19922;-80
2022/03/10 04:27:00;;;;;;;;;;;;;;;1.92;94.20;100392.63;5492532;23;19972;-81
2022/03/10 04:29:25;;;;;;;;;;;;;;;1.90;93.43;100394.34;4969636;28;19922;-83
2022/03/10 04:31:50;;;;;;;;;;;;;;;1.82;93.30;100391.75;4972869;28;19914;-79
2022/03/10 04:34:16;;;;;;;;;;;;;;;1.72;92.91;100384.72;4972885;28;19918;-82
2022/03/10 04:36:42;;;;;;;;;;;;;;;1.71;92.41;100385.56;4972785;28;19914;-81
2022/03/10 04:39:07;;;;;;;;;;;;;;;1.65;92.06;100389.06;4972587;28;19921;-83
2022/03/10 04:41:34;;;;;;;;;;;;;;;1.62;91.24;100389.91;4971455;28;19973;-82
2022/03/10 04:43:59;;;;;;;;;;;;;;;1.59;90.49;100389.91;4967162;28;19918;-82
2022/03/10 04:46:24;;;;;;;;;;;;;;;1.58;89.88;100388.19;4973450;28;19925;-84
2022/03/10 04:48:49;;;;;;;;;;;;;;;1.49;89.10;100387.28;4971445;28;19922;-81
2022/03/10 04:51:15;;;;;;;;;;;;;;;1.57;88.38;100383.81;4971214;28;20384;-85
2022/03/10 04:53:40;;;;;;;;;;;;;;;1.53;87.54;100389.91;4972455;28;19929;-83
2022/03/10 04:56:06;;;;;;;;;;;;;;;1.50;86.81;100389.91;4965222;28;19925;-82
2022/03/10 04:58:31;;;;;;;;;;;;;;;1.48;86.38;100389.00;4970348;28;19929;-83
2022/03/10 05:00:56;;;;;;;;;;;;;;;1.47;86.17;100387.25;4972288;28;19918;-83
2022/03/10 05:03:21;;;;;;;;;;;;;;;1.63;88.84;100385.59;4972331;28;19922;-84
2022/03/10 05:05:47;;;;;;;;;;;;;;;1.67;90.59;100387.31;4970137;28;19965;-84
2022/03/10 05:08:13;;;;;;;;;;;;;;;1.74;91.32;100388.19;4970120;28;19934;-82
2022/03/10 05:10:38;;;;;;;;;;;;;;;1.67;91.49;100396.91;4970985;28;20384;-83
2022/03/10 05:13:03;;;;;;;;;;;;;;;1.59;91.56;100392.50;4973417;28;20009;-84
2022/03/10 05:15:32;;;;;;;;;;;;;;;1.60;91.32;100385.56;4973561;28;19918;-82
2022/03/10 05:17:58;;;;;;;;;;;;;;;1.60;90.90;100396.03;4971878;28;19918;-83
2022/03/10 05:20:25;;;;;;;;;;;;;;;1.47;90.66;100392.50;4973625;28;19976;-83
2022/03/10 05:22:54;;;;;;;;;;;;;;;1.54;90.32;100396.84;4970643;28;20017;-84
2022/03/10 05:25:20;;;;;;;;;;;;;;;1.57;90.03;100398.63;4972092;28;19929;-83
2022/03/10 05:27:46;;;;;;;;;;;;;;;1.40;89.76;100402.00;4972103;28;19926;-82
2022/03/10 05:30:12;;;;;;;;;;;;;;;1.35;89.71;100400.25;4972309;28;19918;-84
2022/03/10 05:32:37;;;;;;;;;;;;;;;1.40;89.79;100409.84;4973290;28;19918;-82
2022/03/10 05:35:04;;;;;;;;;;;;;;;1.38;89.35;100406.38;4973186;28;20344;-82
2022/03/10 05:37:29;;;;;;;;;;;;;;;1.37;89.33;100403.75;4972916;28;19922;-82
2022/03/10 08:44:13;;;;;;;;;;;;;;;1.04;78.79;100421.84;5483527;23;19926;-80
2022/03/10 08:46:39;;;;;;;;;;;;;;;1.00;78.62;100425.31;4982170;28;19926;-81
2022/03/10 08:49:04;;;;;;;;;;;;;;;1.11;79.02;100420.16;4983294;28;20276;-81
2022/03/10 08:51:29;;;;;;;;;;;;;;;1.16;80.39;100414.97;4981589;28;19918;-82
2022/03/10 08:53:54;;;;;;;;;;;;;;;1.18;81.34;100421.94;4978234;28;19925;-82
2022/03/10 08:56:20;;;;;;;;;;;;;;;1.18;81.81;100414.13;4980426;28;20383;-83
2022/03/10 08:58:45;;;;;;;;;;;;;;;1.18;82.05;100419.34;4980946;28;20042;-82
2022/03/10 09:01:10;;;;;;;;;;;;;;;1.20;82.22;100412.38;4982985;28;19925;-82
2022/03/10 09:03:36;;;;;;;;;;;;;;;1.21;81.95;100413.25;4982365;28;20364;-82
2022/03/10 09:06:01;;;;;;;;;;;;;;;1.17;81.68;100407.13;4977922;28;19921;-82
2022/03/10 09:08:26;;;;;;;;;;;;;;;1.16;81.58;100409.75;4977622;28;19981;-82
2022/03/10 09:10:52;;;;;;;;;;;;;;;1.17;81.55;100401.06;4980473;28;20341;-81
2022/03/10 09:13:17;;;;;;;;;;;;;;;1.15;82.16;100398.44;4980303;28;19951;-80
2022/03/10 09:15:45;;;;;;;;;;;;;;;1.16;82.40;100391.47;4982096;28;19922;-79
2022/03/10 09:18:11;;;;;;;;;;;;;;;1.16;82.00;100387.09;4981496;28;20331;-79
2022/03/10 09:20:36;;;;;;;;;;;;;;;1.18;81.54;100388.00;4997605;28;19981;-79
2022/03/10 09:23:01;;;;;;;;;;;;;;;1.16;80.99;100387.09;4983011;28;19922;-80
2022/03/10 09:25:32;;;;;;;;;;;;;;;1.16;80.67;100378.41;4982201;28;19972;-83
2022/03/10 09:27:58;;;;;;;;;;;;;;;1.19;80.46;100381.91;4980232;28;20014;-82
2022/03/10 09:30:23;;;;;;;;;;;;;;;1.20;80.10;100385.41;4982357;28;20062;-80
2022/03/10 09:32:48;;;;;;;;;;;;;;;1.21;80.12;100376.69;4982981;28;19917;-83
2022/03/10 09:35:14;;;;;;;;;;;;;;;1.21;79.97;100372.38;4983088;28;20335;-83
2022/03/10 09:37:40;;;;;;;;;;;;;;;1.22;79.82;100376.69;4981787;28;19921;-80
2022/03/10 09:40:07;;;;;;;;;;;;;;;1.20;79.38;100370.59;4982550;28;19917;-82
2022/03/10 09:42:33;;;;;;;;;;;;;;;1.21;79.37;100367.16;4983054;28;19922;-82
2022/03/10 09:45:00;;;;;;;;;;;;;;;1.18;79.14;100369.75;4981741;28;19922;-83
2022/03/10 09:47:26;;;;;;;;;;;;;;;1.20;79.12;100364.53;4982498;28;19977;-82
2022/03/10 09:49:53;;;;;;;;;;;;;;;1.23;79.09;100373.22;4983074;28;19917;-81
2022/03/10 09:52:18;;;;;;;;;;;;;;;1.22;78.88;100363.66;4982486;28;20009;-82
2022/03/10 09:54:44;;;;;;;;;;;;;;;1.21;78.73;100361.03;4982258;28;20012;-82
2022/03/10 09:57:09;;;;;;;;;;;;;;;1.21;78.66;100356.69;4982550;28;19918;-82
2022/03/10 09:59:46;;;;;;;;;;;;;;;1.22;78.43;100355.81;4979866;28;19965;-83
2022/03/10 10:02:12;;;;;;;;;;;;;;;1.21;78.21;100354.09;4982262;28;20281;-82
2022/03/10 10:04:39;;;;;;;;;;;;;;;1.20;78.10;100359.31;4982447;28;19918;-82
2022/03/10 10:07:06;;;;;;;;;;;;;;;1.21;77.93;100348.88;4982560;28;19926;-82
2022/03/10 10:09:42;;;;;;;;;;;;;;;1.22;77.92;100349.72;4981912;28;19918;-83
2022/03/10 10:12:08;;;;;;;;;;;;;;;1.24;77.84;100340.16;4996906;28;19929;-82
2022/03/10 10:14:38;;;;;;;;;;;;;;;1.25;77.85;100342.78;4981258;28;20365;-82
2022/03/10 10:17:04;;;;;;;;;;;;;;;1.25;77.73;100345.38;4980927;28;19918;-82
2022/03/10 10:19:32;;;;;;;;;;;;;;;1.25;77.58;100340.16;4982255;28;20377;-81
2022/03/10 10:22:20;;;;;;;;;;;;;;;1.25;77.56;100342.78;4980303;28;19972;-83
2022/03/10 10:24:50;;;;;;;;;;;;;;;1.31;77.57;100343.66;4981891;28;20380;-82
2022/03/10 10:27:17;;;;;;;;;;;;;;;1.33;77.73;100331.50;4982734;28;19985;-82
2022/03/10 10:29:45;;;;;;;;;;;;;;;1.32;77.60;100329.75;4981354;28;19984;-81
2022/03/10 10:32:11;;;;;;;;;;;;;;;1.33;77.19;100334.13;4983029;28;19909;-82
2022/03/10 10:34:38;;;;;;;;;;;;;;;1.35;77.12;100321.94;4982075;28;19922;-82
2022/03/10 10:37:03;;;;;;;;;;;;;;;1.33;76.79;100323.66;4982755;28;19921;-82
2022/03/10 10:39:28;;;;;;;;;;;;;;;1.33;76.75;100328.91;4982582;28;19917;-83
2022/03/10 10:41:54;;;;;;;;;;;;;;;1.32;76.67;100319.31;4982199;28;19965;-82
2022/03/10 10:44:23;;;;;;;;;;;;;;;1.37;76.74;100313.25;4982803;28;20391;-83
2022/03/10 10:46:49;;;;;;;;;;;;;;;1.36;76.66;100308.00;4986194;28;19961;-83
2022/03/10 10:49:17;;;;;;;;;;;;;;;1.34;76.37;100299.28;4985538;28;20369;-82
2022/03/10 10:51:45;;;;;;;;;;;;;;;1.38;76.52;100304.53;4985792;28;19972;-82
2022/03/10 10:54:26;;;;;;;;;;;;;;;1.39;76.36;100289.75;4985402;28;20369;-82
2022/03/10 10:56:51;;;;;;;;;;;;;;;1.42;76.61;100289.72;4985529;28;19922;-82
2022/03/10 10:59:35;;;;;;;;;;;;;;;1.39;76.50;100287.13;4984778;28;19913;-82
2022/03/10 11:02:08;;;;;;;;;;;;;;;1.42;76.26;100284.50;4985752;28;19918;-82
2022/03/10 11:04:34;;;;;;;;;;;;;;;1.41;76.36;100281.03;5000356;28;19922;-83
2022/03/10 11:06:59;;;;;;;;;;;;;;;1.39;76.15;100271.47;4985315;28;20290;-82
2022/03/10 11:09:25;;;;;;;;;;;;;;;1.41;76.24;100275.81;4985260;28;20376;-82
2022/03/10 11:11:50;;;;;;;;;;;;;;;1.44;76.41;100265.38;4985660;28;20357;-83
2022/03/10 11:14:16;;;;;;;;;;;;;;;1.42;76.39;100266.22;4983898;28;19980;-83
2022/03/10 11:16:42;;;;;;;;;;;;;;;1.43;75.93;100262.75;4985024;28;19980;-83
2022/03/10 11:19:10;;;;;;;;;;;;;;;1.40;75.59;100261.00;4985576;28;19918;-83
2022/03/10 11:21:50;;;;;;;;;;;;;;;1.42;75.77;100256.66;4985242;28;20024;-83
2022/03/10 11:24:26;;;;;;;;;;;;;;;1.45;75.83;100255.78;4985093;28;19929;-83
2022/03/10 11:26:54;;;;;;;;;;;;;;;1.47;75.85;100261.00;4984583;28;20284;-82
2022/03/10 11:29:25;;;;;;;;;;;;;;;1.46;75.73;100257.53;4983021;28;19957;-82
2022/03/10 11:31:52;;;;;;;;;;;;;;;1.48;75.82;100245.34;4984521;28;20452;-83
2022/03/10 11:34:36;;;;;;;;;;;;;;;1.48;75.91;100247.94;4985929;28;19918;-84
2022/03/10 11:37:09;;;;;;;;;;;;;;;1.51;75.86;100239.25;4984626;28;19922;-83
2022/03/10 11:39:51;;;;;;;;;;;;;;;1.51;76.25;100247.09;4984710;28;19926;-83
2022/03/10 11:42:26;;;;;;;;;;;;;;;1.53;76.37;100242.75;4984448;28;20320;-81
2022/03/10 11:45:04;;;;;;;;;;;;;;;1.54;76.36;100234.91;4997335;28;20421;-83
2022/03/10 11:47:30;;;;;;;;;;;;;;;1.52;76.32;100231.44;4997958;28;19918;-83
2022/03/10 11:49:56;;;;;;;;;;;;;;;1.57;76.62;100231.44;4982842;28;20038;-82
2022/03/10 11:52:27;;;;;;;;;;;;;;;1.56;76.74;100221.84;4982556;28;19922;-83
2022/03/10 11:55:02;;;;;;;;;;;;;;;1.58;76.94;100222.72;4982231;28;20262;-84
2022/03/10 11:57:27;;;;;;;;;;;;;;;1.58;76.75;100215.78;4983280;28;19918;-83
2022/03/10 11:59:52;;;;;;;;;;;;;;;1.58;76.56;100210.53;4982955;28;20336;-84
2022/03/10 12:02:31;;;;;;;;;;;;;;;1.58;76.16;100207.03;4994356;28;19953;-84
2022/03/10 12:04:57;;;;;;;;;;;;;;;1.59;76.24;100201.81;4999264;28;19922;-83
2022/03/10 12:07:27;;;;;;;;;;;;;;;1.61;76.04;100207.94;4983284;28;19922;-80
2022/03/10 12:10:02;;;;;;;;;;;;;;;1.62;75.93;100204.44;4984091;28;19922;-81
2022/03/10 12:12:30;;;;;;;;;;;;;;;1.57;76.02;100193.13;4998702;28;19922;-82
2022/03/10 12:14:56;;;;;;;;;;;;;;;1.62;76.73;100188.75;4981553;28;19929;-84
2022/03/10 12:17:40;;;;;;;;;;;;;;;1.65;76.96;100174.84;4981863;28;20005;-81
2022/03/10 12:20:16;;;;;;;;;;;;;;;1.69;76.63;100179.19;4983925;28;19926;-82
2022/03/10 12:23:02;;;;;;;;;;;;;;;1.68;76.28;100179.19;4983642;28;20285;-82
2022/03/10 12:25:27;;;;;;;;;;;;;;;1.70;76.02;100167.00;4977966;28;19925;-83
2022/03/10 12:27:56;;;;;;;;;;;;;;;1.70;75.87;100164.38;4980662;28;20304;-86
2022/03/10 12:30:24;;;;;;;;;;;;;;;1.73;75.62;100162.63;4982650;28;19918;-82
2022/03/10 12:32:51;;;;;;;;;;;;;;;1.73;75.13;100167.84;4983555;28;20288;-84
2022/03/10 12:35:24;;;;;;;;;;;;;;;1.71;75.04;100158.28;4982975;28;19921;-83
2022/03/10 12:37:50;;;;;;;;;;;;;;;1.70;74.84;100156.53;4983592;28;19922;-84
2022/03/10 12:40:26;;;;;;;;;;;;;;;1.72;74.92;100157.41;4983581;28;20353;-82
2022/03/10 12:42:57;;;;;;;;;;;;;;;1.74;75.16;100159.16;4982859;28;19922;-84
2022/03/10 12:45:22;;;;;;;;;;;;;;;1.74;74.91;100153.94;4983724;28;19921;-82
2022/03/10 12:47:54;;;;;;;;;;;;;;;1.74;75.06;100153.03;4983201;28;19933;-83
2022/03/10 12:50:19;;;;;;;;;;;;;;;1.92;76.09;100139.97;4983479;28;19918;-84
2022/03/10 12:52:45;;;;;;;;;;;;;;;2.20;79.24;100139.03;4982588;28;19922;-82
2022/03/10 12:55:10;;;;;;;;;;;;;;;2.28;82.21;100135.53;4983230;28;20292;-84
2022/03/10 12:57:37;;;;;;;;;;;;;;;2.31;84.88;100132.91;4983492;28;19918;-84
2022/03/10 13:00:03;;;;;;;;;;;;;;;2.35;86.99;100125.91;4981668;28;19924;-82
2022/03/10 13:02:36;;;;;;;;;;;;;;;2.36;88.39;100122.41;4983217;28;19924;-84
2022/03/10 13:05:02;;;;;;;;;;;;;;;2.36;89.85;100123.28;4981014;28;20365;-85
2022/03/10 13:07:29;;;;;;;;;;;;;;;2.39;90.53;100117.16;4981388;28;19985;-82
2022/03/10 13:09:59;;;;;;;;;;;;;;;2.42;91.44;100113.66;4983467;28;19917;-82
2022/03/10 13:12:28;;;;;;;;;;;;;;;2.40;92.40;100112.81;4983238;28;19922;-83
2022/03/10 13:14:53;;;;;;;;;;;;;;;2.42;93.97;100111.06;4981650;28;19918;-83
2022/03/10 13:17:29;;;;;;;;;;;;;;;2.45;95.00;100116.28;4983257;28;20020;-83
2022/03/10 13:19:54;;;;;;;;;;;;;;;2.48;96.35;100114.50;4981815;28;19926;-84
2022/03/10 13:22:20;;;;;;;;;;;;;;;2.47;97.75;100106.66;4982435;28;19918;-82
2022/03/10 13:24:51;;;;;;;;;;;;;;;2.58;100.00;100099.63;4982784;28;19924;-83
2022/03/10 13:27:26;;;;;;;;;;;;;;;2.75;100.00;100103.91;4981857;28;19994;-83
2022/03/10 13:29:52;;;;;;;;;;;;;;;2.85;100.00;100100.34;4981261;28;19921;-83
2022/03/10 13:32:22;;;;;;;;;;;;;;;2.96;100.00;100097.66;4983363;28;20195;-82
2022/03/10 13:34:48;;;;;;;;;;;;;;;3.06;100.00;100089.75;4981650;28;19973;-81
2022/03/10 13:37:13;;;;;;;;;;;;;;;3.12;100.00;100087.97;4982937;28;20365;-81
2022/03/10 13:39:43;;;;;;;;;;;;;;;3.14;100.00;100073.09;4981844;28;19922;-83
2022/03/10 13:42:12;;;;;;;;;;;;;;;3.22;100.00;100079.13;4981675;28;19918;-82
2022/03/10 13:44:37;;;;;;;;;;;;;;;3.22;100.00;100071.28;4979936;28;19949;-82
2022/03/10 13:47:06;;;;;;;;;;;;;;;3.26;100.00;100062.53;4982549;28;19922;-82
2022/03/10 13:49:39;;;;;;;;;;;;;;;3.27;100.00;100064.25;4982050;28;19933;-82
2022/03/10 13:52:09;;;;;;;;;;;;;;;3.36;100.00;100060.69;4982776;28;19925;-81
2022/03/10 13:54:37;;;;;;;;;;;;;;;3.34;100.00;100058.09;4981850;28;19969;-82
2022/03/10 13:57:02;;;;;;;;;;;;;;;3.38;100.00;100051.94;4982392;28;19922;-82
2022/03/10 13:59:28;;;;;;;;;;;;;;;3.40;100.00;100052.78;4981752;28;20025;-82
2022/03/10 14:01:53;;;;;;;;;;;;;;;3.44;100.00;100041.38;4982760;28;19969;-82
2022/03/10 14:04:18;;;;;;;;;;;;;;;3.44;100.00;100037.91;4982434;28;19929;-82
2022/03/10 14:06:48;;;;;;;;;;;;;;;3.50;100.00;100037.00;4982385;28;19921;-81
2022/03/10 14:09:16;;;;;;;;;;;;;;;3.50;100.00;100027.38;4981832;28;20421;-81
2022/03/10 14:11:42;;;;;;;;;;;;;;;3.51;100.00;100023.00;4981537;28;20012;-81
2022/03/10 14:14:07;;;;;;;;;;;;;;;3.54;100.00;100022.97;4981759;28;20017;-81
2022/03/10 14:16:33;;;;;;;;;;;;;;;3.57;100.00;100012.44;4982492;28;20017;-82
2022/03/10 14:18:58;;;;;;;;;;;;;;;3.57;100.00;100015.06;4983716;28;20352;-82
2022/03/10 14:21:23;;;;;;;;;;;;;;;3.56;100.00;100010.72;4986373;28;20292;-82
2022/03/10 14:23:59;;;;;;;;;;;;;;;3.56;100.00;100006.34;4986063;28;19919;-84
2022/03/10 14:26:25;;;;;;;;;;;;;;;3.61;100.00;100004.53;4985153;28;20004;-83
2022/03/10 14:28:51;;;;;;;;;;;;;;;2.82;100.00;100007.00;4985203;28;20399;-83
2022/03/10 14:31:17;;;;;;;;;;;;;;;2.41;100.00;100002.94;4986275;28;19918;-83
2022/03/10 14:33:45;;;;;;;;;;;;;;;2.30;100.00;99997.78;4985822;28;19954;-83
2022/03/10 14:36:11;;;;;;;;;;;;;;;2.20;100.00;99996.06;4985742;28;20292;-83
2022/03/10 14:38:37;;;;;;;;;;;;;;;2.12;100.00;100003.09;4984467;28;19922;-83
2022/03/10 14:41:03;;;;;;;;;;;;;;;2.09;100.00;99992.66;4985799;28;19918;-83
2022/03/10 14:46:04;;;;;;;;;;;;;;;1.94;100.00;99988.38;5023095;23;20304;-84
2022/03/10 14:48:29;;;;;;;;;;;;;;;1.89;100.00;99987.53;4984340;28;19922;-83
2022/03/10 14:50:55;;;;;;;;;;;;;;;1.86;100.00;99982.31;4983945;28;19926;-84
2022/03/10 14:53:20;;;;;;;;;;;;;;;1.81;99.56;99980.56;4985177;28;19922;-84
2022/03/10 14:55:46;;;;;;;;;;;;;;;1.75;98.36;99972.75;4983688;28;19961;-82
2022/03/10 14:58:11;;;;;;;;;;;;;;;1.69;97.26;99967.59;4984488;28;19922;-83
2022/03/10 15:00:36;;;;;;;;;;;;;;;1.78;96.43;99974.50;4982354;28;19922;-82
2022/03/10 15:03:04;;;;;;;;;;;;;;;1.71;95.08;99978.00;4983170;28;19924;-82
2022/03/10 15:05:29;;;;;;;;;;;;;;;1.63;94.60;99973.69;4974503;28;19929;-86
2022/03/10 15:07:54;;;;;;;;;;;;;;;1.67;93.65;99965.84;4975923;28;19918;-84
2022/03/10 15:10:20;;;;;;;;;;;;;;;1.55;92.71;99959.78;4975872;28;20298;-85
2022/03/10 15:12:47;;;;;;;;;;;;;;;1.52;91.71;99958.94;4975824;28;19927;-85
2022/03/10 15:15:12;;;;;;;;;;;;;;;1.46;90.56;99962.44;4989263;28;19949;-84
2022/03/10 15:17:38;;;;;;;;;;;;;;;1.45;89.82;99958.94;4975503;28;19922;-85
2022/03/10 15:20:05;;;;;;;;;;;;;;;1.43;89.47;99965.03;4974088;28;19925;-83
2022/03/10 15:22:30;;;;;;;;;;;;;;;1.43;89.08;99954.59;4974263;28;20400;-84
2022/03/10 15:24:55;;;;;;;;;;;;;;;1.38;88.76;99951.13;4974256;28;19922;-84
2022/03/10 15:27:21;;;;;;;;;;;;;;;1.35;88.39;99952.00;4974185;28;19918;-84
2022/03/10 15:29:46;;;;;;;;;;;;;;;1.40;88.33;99955.47;4973571;28;19965;-83
2022/03/10 15:32:12;;;;;;;;;;;;;;;1.40;87.96;99952.00;4974034;28;20544;-83
2022/03/10 15:34:37;;;;;;;;;;;;;;;1.34;87.80;99950.28;4973389;28;19922;-82
2022/03/10 15:37:03;;;;;;;;;;;;;;;1.30;87.96;99955.50;4975214;28;19973;-80
2022/03/10 15:39:30;;;;;;;;;;;;;;;1.33;87.71;99958.13;4976480;28;19922;-82
2022/03/10 15:41:56;;;;;;;;;;;;;;;1.34;87.32;99944.16;4974965;28;20440;-81
2022/03/10 15:44:24;;;;;;;;;;;;;;;1.33;87.51;99945.06;4972425;28;19922;-81
2022/03/10 15:46:50;;;;;;;;;;;;;;;1.30;87.60;99951.16;4973163;28;20340;-81
2022/03/10 15:49:16;;;;;;;;;;;;;;;1.27;87.23;99948.53;4974808;28;19926;-81
2022/03/10 15:51:41;;;;;;;;;;;;;;;1.24;87.13;99943.31;4973733;28;19918;-83
2022/03/10 15:54:06;;;;;;;;;;;;;;;1.18;86.87;99940.72;4973865;28;19927;-82
2022/03/10 15:56:32;;;;;;;;;;;;;;;1.25;86.89;99937.25;4989855;28;20278;-81
2022/03/10 15:58:57;;;;;;;;;;;;;;;1.29;86.75;99938.09;4971754;28;20008;-83
2022/03/10 16:01:22;;;;;;;;;;;;;;;1.21;86.66;99941.63;4972073;28;19940;-83
2022/03/10 16:03:48;;;;;;;;;;;;;;;1.19;86.59;99935.50;4971685;28;20016;-82
2022/03/10 16:06:13;;;;;;;;;;;;;;;1.20;86.64;99937.25;4973927;28;20345;-82
2022/03/10 16:08:41;;;;;;;;;;;;;;;1.20;86.43;99944.22;4967439;28;20186;-82
2022/03/10 16:11:06;;;;;;;;;;;;;;;1.24;86.22;99933.75;4974169;28;19922;-81
2022/03/10 16:13:31;;;;;;;;;;;;;;;1.17;86.29;99942.47;4971808;28;20296;-83
2022/03/10 16:15:57;;;;;;;;;;;;;;;1.18;86.13;99935.50;4973167;28;19980;-82
2022/03/10 16:18:23;;;;;;;;;;;;;;;1.19;86.15;99938.13;4973638;28;19932;-83
2022/03/10 16:20:49;;;;;;;;;;;;;;;1.16;86.01;99935.50;4972244;28;20389;-83
2022/03/10 16:23:14;;;;;;;;;;;;;;;1.23;86.05;99931.16;4988447;28;19932;-82
2022/03/10 16:25:39;;;;;;;;;;;;;;;1.19;85.83;99942.47;4974061;28;19926;-82
2022/03/10 16:28:05;;;;;;;;;;;;;;;1.20;85.65;99944.22;4972925;28;19918;-82
2022/03/10 16:30:30;;;;;;;;;;;;;;;1.18;85.50;99933.78;4971808;28;19984;-83
2022/03/10 16:32:56;;;;;;;;;;;;;;;1.16;85.41;99943.34;4972852;28;20297;-83
2022/03/10 16:35:21;;;;;;;;;;;;;;;1.18;85.38;99944.22;4971231;28;19922;-84
2022/03/10 16:37:47;;;;;;;;;;;;;;;1.15;85.35;99944.22;4972539;28;19926;-86
2022/03/10 16:40:12;;;;;;;;;;;;;;;1.16;85.42;99934.66;4973073;28;19926;-83
2022/03/10 16:42:38;;;;;;;;;;;;;;;1.17;85.62;99932.03;4970940;28;19990;-83
2022/03/10 16:45:04;;;;;;;;;;;;;;;1.17;85.63;99939.88;4970086;28;19973;-84
2022/03/10 16:47:29;;;;;;;;;;;;;;;1.10;85.33;99940.75;4971933;28;19949;-88
2022/03/10 16:49:57;;;;;;;;;;;;;;;1.17;85.40;99939.88;4971326;28;19972;-88
2022/03/10 16:52:23;;;;;;;;;;;;;;;1.12;85.16;99936.41;4970344;28;20056;-86
2022/03/10 16:54:48;;;;;;;;;;;;;;;1.16;85.06;99938.13;4973248;28;20012;-87
2022/03/10 16:57:13;;;;;;;;;;;;;;;1.13;84.89;99939.88;4970943;28;20013;-89
2022/03/10 16:59:39;;;;;;;;;;;;;;;1.11;84.92;99937.28;4971882;28;19922;-87
2022/03/10 17:02:05;;;;;;;;;;;;;;;1.12;84.84;99943.34;4972314;28;19972;-89
2022/03/10 17:04:31;;;;;;;;;;;;;;;1.11;84.75;99936.41;4985566;28;19922;-87
2022/03/10 17:06:57;;;;;;;;;;;;;;;1.06;84.76;99941.63;4970762;28;19942;-86
2022/03/10 17:09:22;;;;;;;;;;;;;;;1.08;84.73;99947.72;4972041;28;19926;-86
2022/03/10 17:11:48;;;;;;;;;;;;;;;1.13;84.62;99935.50;4972355;28;20009;-86
2022/03/10 17:14:14;;;;;;;;;;;;;;;1.12;84.29;99943.34;4970231;28;19922;-84
2022/03/10 17:16:39;;;;;;;;;;;;;;;1.09;84.35;99942.50;4971146;28;20002;-89
2022/03/10 17:19:04;;;;;;;;;;;;;;;1.09;84.32;99939.88;4971990;28;20512;-85
2022/03/10 17:21:30;;;;;;;;;;;;;;;1.10;84.22;99940.75;4971548;28;20373;-87
2022/03/10 17:23:55;;;;;;;;;;;;;;;1.11;84.04;99942.50;4971285;28;20001;-88
2022/03/10 17:26:22;;;;;;;;;;;;;;;1.08;84.04;99937.28;4971648;28;19922;-86
2022/03/10 17:28:47;;;;;;;;;;;;;;;1.05;84.03;99942.50;4970920;28;19937;-87
2022/03/10 17:31:13;;;;;;;;;;;;;;;1.04;83.99;99946.84;4971636;28;20299;-86
2022/03/10 17:33:38;;;;;;;;;;;;;;;1.06;84.07;99952.06;4971203;28;19928;-82
2022/03/10 17:36:08;;;;;;;;;;;;;;;1.06;83.84;99952.94;4971723;28;19922;-85
2022/03/10 17:38:35;;;;;;;;;;;;;;;1.06;83.76;99952.94;4972039;28;19975;-83
2022/03/10 17:41:00;;;;;;;;;;;;;;;1.05;83.57;99946.00;4971403;28;19973;-85
2022/03/10 17:43:26;;;;;;;;;;;;;;;1.06;83.42;99944.25;4971393;28;19930;-84
2022/03/10 17:45:51;;;;;;;;;;;;;;;1.08;83.12;99945.09;4968838;28;19969;-85
2022/03/10 17:48:16;;;;;;;;;;;;;;;1.09;82.97;99950.31;4968850;28;19965;-84
2022/03/10 17:50:42;;;;;;;;;;;;;;;1.07;83.09;99951.22;4971300;28;19977;-85
2022/03/10 17:53:07;;;;;;;;;;;;;;;1.01;82.98;99946.84;4973181;28;19937;-83
2022/03/10 17:55:33;;;;;;;;;;;;;;;1.04;82.92;99948.59;4991336;28;19972;-85
2022/03/10 17:57:58;;;;;;;;;;;;;;;1.05;82.59;99946.00;4975281;28;19930;-83
2022/03/10 18:00:23;;;;;;;;;;;;;;;1.01;82.57;99948.59;4970860;28;19929;-86
2022/03/10 18:02:53;;;;;;;;;;;;;;;1.04;82.44;99956.44;4973687;28;19981;-86
2022/03/10 18:05:18;;;;;;;;;;;;;;;1.06;82.37;99955.53;4990487;28;19926;-86
2022/03/10 18:07:43;;;;;;;;;;;;;;;1.06;82.18;99955.53;4989488;28;19922;-85
2022/03/10 18:10:10;;;;;;;;;;;;;;;1.04;82.08;99951.22;4974571;28;19966;-87
2022/03/10 18:12:35;;;;;;;;;;;;;;;1.05;82.09;99947.72;4990835;28;19918;-85
2022/03/10 18:15:00;;;;;;;;;;;;;;;1.05;81.89;99942.50;4973035;28;19933;-86
2022/03/10 18:17:25;;;;;;;;;;;;;;;1.03;81.81;99950.31;4974769;28;20383;-86
2022/03/10 18:19:51;;;;;;;;;;;;;;;1.04;81.76;99951.22;4976114;28;19929;-83
2022/03/10 18:22:16;;;;;;;;;;;;;;;1.04;81.79;99946.00;4975043;28;19918;-82
2022/03/10 18:24:42;;;;;;;;;;;;;;;1.03;81.77;99941.63;4974681;28;19953;-84
2022/03/10 18:27:07;;;;;;;;;;;;;;;1.05;81.70;99945.09;4975706;28;19929;-86
2022/03/10 18:29:33;;;;;;;;;;;;;;;1.06;81.39;99939.03;4973375;28;19926;-83
2022/03/10 18:31:58;;;;;;;;;;;;;;;1.03;81.29;99929.44;4973915;28;19922;-85
2022/03/10 18:34:23;;;;;;;;;;;;;;;1.02;81.12;99932.06;4974601;28;19969;-84
2022/03/10 18:36:48;;;;;;;;;;;;;;;1.08;81.03;99938.13;4973984;28;19961;-83
2022/03/10 18:39:15;;;;;;;;;;;;;;;1.06;80.90;99939.03;4975680;28;19981;-84
2022/03/10 18:41:41;;;;;;;;;;;;;;;1.02;80.75;99932.06;4972748;28;19929;-85
2022/03/10 18:44:06;;;;;;;;;;;;;;;1.06;80.84;99933.81;4988765;28;20388;-82
2022/03/10 18:46:31;;;;;;;;;;;;;;;1.05;80.65;99932.06;4975830;28;19926;-85
2022/03/10 18:48:57;;;;;;;;;;;;;;;1.08;80.42;99932.06;4971464;28;19946;-84
2022/03/10 18:51:22;;;;;;;;;;;;;;;1.09;80.17;99939.03;4975641;28;20582;-86
2022/03/10 18:53:50;;;;;;;;;;;;;;;1.04;79.77;99941.63;4973973;28;19922;-83
2022/03/10 18:56:16;;;;;;;;;;;;;;;1.10;79.80;99945.97;4972935;28;19934;-86
2022/03/10 18:58:41;;;;;;;;;;;;;;;1.09;79.79;99933.81;4974637;28;20357;-86
2022/03/10 19:01:06;;;;;;;;;;;;;;;1.09;79.74;99944.25;4974182;28;19922;-86
2022/03/10 19:03:32;;;;;;;;;;;;;;;1.07;79.56;99939.03;4975482;28;19922;-85
2022/03/10 19:05:57;;;;;;;;;;;;;;;1.04;79.50;99946.84;4973326;28;20293;-85
2022/03/10 19:08:23;;;;;;;;;;;;;;;1.08;79.23;99942.50;4975186;28;19926;-86
2022/03/10 19:10:48;;;;;;;;;;;;;;;1.02;79.16;99948.59;4974000;28;19922;-85
2022/03/10 19:13:13;;;;;;;;;;;;;;;1.08;79.21;99939.88;4974872;28;19954;-85
2022/03/10 19:15:38;;;;;;;;;;;;;;;1.10;79.00;99940.75;4972097;28;19972;-84
2022/03/10 19:18:04;;;;;;;;;;;;;;;1.12;78.89;99944.25;4973094;28;19933;-83
2022/03/10 19:20:29;;;;;;;;;;;;;;;1.06;78.81;99934.66;4974586;28;19922;-86
2022/03/10 19:22:54;;;;;;;;;;;;;;;1.11;78.89;99937.28;4970067;28;20349;-84
2022/03/10 19:25:22;;;;;;;;;;;;;;;1.07;78.62;99927.72;4974930;28;19976;-85
2022/03/10 19:27:48;;;;;;;;;;;;;;;1.11;78.37;99924.22;4972493;28;19976;-86